Terminal Aerodrome Forecast
Issued by NWS Rapid City, SD

Home | Current Version | Previous Version | Text Only | Print | Product List | Glossary Off
Versions: 1 2 3 4 5 6 7 8 9 10 11 12 13 14 15 16 17 18 19 20 21 22 23 24 25

000
FTUS43 KUNR 261120
TAFRAP
TAF
KRAP 261120Z 2612/2712 35016KT P6SM -SHRA BKN040 OVC080
     FM261500 35016KT P6SM -RA BKN015 OVC040
     FM262000 36008KT P6SM BKN020
     FM270100 VRB04KT P6SM BKN100=

USA.gov is the U.S. government's official web portal to all federal, state and local government web resources and services.